sensor_id;sensor_type;location;lat;lon;timestamp;P1;durP1;ratioP1;P2;durP2;ratioP2
2544;SDS011;36212;48.838;9.142;2022-07-26T00:00:42;2.77;;;2.60;;
2544;SDS011;36212;48.838;9.142;2022-07-26T00:03:14;2.90;;;2.70;;
2544;SDS011;36212;48.838;9.142;2022-07-26T00:05:46;4.20;;;2.80;;
2544;SDS011;36212;48.838;9.142;2022-07-26T00:08:19;4.17;;;2.60;;
2544;SDS011;36212;48.838;9.142;2022-07-26T00:10:51;3.00;;;2.43;;
2544;SDS011;36212;48.838;9.142;2022-07-26T00:13:23;4.83;;;2.67;;
2544;SDS011;36212;48.838;9.142;2022-07-26T00:16:00;3.00;;;2.70;;
2544;SDS011;36212;48.838;9.142;2022-07-26T00:18:34;3.40;;;2.47;;
2544;SDS011;36212;48.838;9.142;2022-07-26T00:21:06;2.40;;;2.20;;
2544;SDS011;36212;48.838;9.142;2022-07-26T00:23:38;4.07;;;2.50;;
2544;SDS011;36212;48.838;9.142;2022-07-26T00:26:11;2.40;;;2.20;;
2544;SDS011;36212;48.838;9.142;2022-07-26T00:28:43;3.00;;;2.13;;
2544;SDS011;36212;48.838;9.142;2022-07-26T00:31:15;2.00;;;1.90;;
2544;SDS011;36212;48.838;9.142;2022-07-26T00:33:47;3.57;;;1.97;;
2544;SDS011;36212;48.838;9.142;2022-07-26T00:36:19;2.90;;;2.27;;
2544;SDS011;36212;48.838;9.142;2022-07-26T00:38:51;4.90;;;1.97;;
2544;SDS011;36212;48.838;9.142;2022-07-26T00:41:23;2.50;;;2.30;;
2544;SDS011;36212;48.838;9.142;2022-07-26T00:43:57;2.53;;;2.07;;
2544;SDS011;36212;48.838;9.142;2022-07-26T00:46:30;2.37;;;2.17;;
2544;SDS011;36212;48.838;9.142;2022-07-26T00:49:06;2.00;;;1.70;;
2544;SDS011;36212;48.838;9.142;2022-07-26T00:51:40;2.13;;;1.70;;
2544;SDS011;36212;48.838;9.142;2022-07-26T00:54:17;2.17;;;1.70;;
2544;SDS011;36212;48.838;9.142;2022-07-26T00:56:49;1.70;;;1.60;;
2544;SDS011;36212;48.838;9.142;2022-07-26T00:59:26;1.77;;;1.67;;
2544;SDS011;36212;48.838;9.142;2022-07-26T01:01:58;2.27;;;2.03;;
2544;SDS011;36212;48.838;9.142;2022-07-26T01:04:31;2.00;;;1.90;;
2544;SDS011;36212;48.838;9.142;2022-07-26T01:07:04;5.33;;;1.80;;
2544;SDS011;36212;48.838;9.142;2022-07-26T01:09:46;4.73;;;2.10;;
2544;SDS011;36212;48.838;9.142;2022-07-26T01:12:19;2.40;;;2.30;;
2544;SDS011;36212;48.838;9.142;2022-07-26T01:14:51;2.97;;;2.30;;
2544;SDS011;36212;48.838;9.142;2022-07-26T01:17:23;4.77;;;2.23;;
2544;SDS011;36212;48.838;9.142;2022-07-26T01:19:55;2.87;;;2.67;;
2544;SDS011;36212;48.838;9.142;2022-07-26T01:22:27;2.90;;;2.43;;
2544;SDS011;36212;48.838;9.142;2022-07-26T01:24:59;2.73;;;2.53;;
2544;SDS011;36212;48.838;9.142;2022-07-26T01:27:31;2.33;;;2.13;;
2544;SDS011;36212;48.838;9.142;2022-07-26T01:30:10;2.50;;;2.30;;
2544;SDS011;36212;48.838;9.142;2022-07-26T01:32:43;2.80;;;2.60;;
2544;SDS011;36212;48.838;9.142;2022-07-26T01:35:23;2.30;;;2.10;;
2544;SDS011;36212;48.838;9.142;2022-07-26T01:37:59;2.63;;;2.50;;
2544;SDS011;36212;48.838;9.142;2022-07-26T01:40:31;2.80;;;2.60;;
2544;SDS011;36212;48.838;9.142;2022-07-26T01:43:03;3.03;;;2.70;;
2544;SDS011;36212;48.838;9.142;2022-07-26T01:45:35;2.80;;;2.60;;
2544;SDS011;36212;48.838;9.142;2022-07-26T01:48:07;2.10;;;2.00;;
2544;SDS011;36212;48.838;9.142;2022-07-26T01:50:46;2.90;;;2.70;;
2544;SDS011;36212;48.838;9.142;2022-07-26T01:53:18;2.40;;;2.20;;
2544;SDS011;36212;48.838;9.142;2022-07-26T01:55:50;2.90;;;2.70;;
2544;SDS011;36212;48.838;9.142;2022-07-26T01:58:23;3.33;;;2.73;;
2544;SDS011;36212;48.838;9.142;2022-07-26T02:00:55;2.70;;;2.50;;
2544;SDS011;36212;48.838;9.142;2022-07-26T02:03:27;2.47;;;2.30;;
2544;SDS011;36212;48.838;9.142;2022-07-26T02:05:59;3.00;;;2.50;;
2544;SDS011;36212;48.838;9.142;2022-07-26T02:08:34;2.63;;;2.43;;
2544;SDS011;36212;48.838;9.142;2022-07-26T02:11:06;2.97;;;2.43;;
2544;SDS011;36212;48.838;9.142;2022-07-26T02:13:39;2.97;;;2.67;;
2544;SDS011;36212;48.838;9.142;2022-07-26T02:16:12;2.20;;;2.10;;
2544;SDS011;36212;48.838;9.142;2022-07-26T02:18:45;2.37;;;2.27;;
2544;SDS011;36212;48.838;9.142;2022-07-26T02:21:17;2.67;;;2.47;;
2544;SDS011;36212;48.838;9.142;2022-07-26T02:23:49;5.43;;;2.60;;
2544;SDS011;36212;48.838;9.142;2022-07-26T02:26:21;2.70;;;2.50;;
2544;SDS011;36212;48.838;9.142;2022-07-26T02:28:56;3.00;;;2.80;;
2544;SDS011;36212;48.838;9.142;2022-07-26T02:31:28;2.40;;;2.30;;
2544;SDS011;36212;48.838;9.142;2022-07-26T02:34:02;3.57;;;2.63;;
2544;SDS011;36212;48.838;9.142;2022-07-26T02:36:35;2.70;;;2.60;;
2544;SDS011;36212;48.838;9.142;2022-07-26T02:39:07;2.40;;;2.20;;
2544;SDS011;36212;48.838;9.142;2022-07-26T02:41:40;2.37;;;2.17;;
2544;SDS011;36212;48.838;9.142;2022-07-26T02:44:12;2.43;;;2.30;;
2544;SDS011;36212;48.838;9.142;2022-07-26T02:46:44;2.47;;;2.30;;
2544;SDS011;36212;48.838;9.142;2022-07-26T02:49:16;2.33;;;2.23;;
2544;SDS011;36212;48.838;9.142;2022-07-26T02:51:50;2.20;;;2.10;;
2544;SDS011;36212;48.838;9.142;2022-07-26T02:54:22;1.93;;;1.80;;
2544;SDS011;36212;48.838;9.142;2022-07-26T02:56:54;2.17;;;2.07;;
2544;SDS011;36212;48.838;9.142;2022-07-26T02:59:26;2.27;;;2.10;;
2544;SDS011;36212;48.838;9.142;2022-07-26T03:01:59;2.93;;;2.60;;
2544;SDS011;36212;48.838;9.142;2022-07-26T03:04:33;1.90;;;1.80;;
2544;SDS011;36212;48.838;9.142;2022-07-26T03:07:05;2.23;;;2.13;;
2544;SDS011;36212;48.838;9.142;2022-07-26T03:09:37;3.60;;;2.30;;
2544;SDS011;36212;48.838;9.142;2022-07-26T03:12:09;2.30;;;2.20;;
2544;SDS011;36212;48.838;9.142;2022-07-26T03:14:41;2.00;;;1.90;;
2544;SDS011;36212;48.838;9.142;2022-07-26T03:17:14;1.90;;;1.80;;
2544;SDS011;36212;48.838;9.142;2022-07-26T03:19:46;2.33;;;2.13;;
2544;SDS011;36212;48.838;9.142;2022-07-26T03:22:18;3.17;;;2.03;;
2544;SDS011;36212;48.838;9.142;2022-07-26T03:24:50;2.03;;;1.93;;
2544;SDS011;36212;48.838;9.142;2022-07-26T03:27:22;2.43;;;2.23;;
2544;SDS011;36212;48.838;9.142;2022-07-26T03:29:54;2.17;;;2.07;;
2544;SDS011;36212;48.838;9.142;2022-07-26T03:32:26;2.10;;;2.00;;
2544;SDS011;36212;48.838;9.142;2022-07-26T03:34:58;2.30;;;2.20;;
2544;SDS011;36212;48.838;9.142;2022-07-26T03:37:30;3.77;;;2.70;;
2544;SDS011;36212;48.838;9.142;2022-07-26T03:40:17;2.33;;;2.13;;
2544;SDS011;36212;48.838;9.142;2022-07-26T03:42:49;2.40;;;2.30;;
2544;SDS011;36212;48.838;9.142;2022-07-26T03:45:22;2.03;;;1.93;;
2544;SDS011;36212;48.838;9.142;2022-07-26T03:47:54;2.47;;;2.00;;
2544;SDS011;36212;48.838;9.142;2022-07-26T03:50:26;3.27;;;2.20;;
2544;SDS011;36212;48.838;9.142;2022-07-26T03:52:58;2.67;;;2.47;;
2544;SDS011;36212;48.838;9.142;2022-07-26T03:55:30;2.43;;;2.20;;
2544;SDS011;36212;48.838;9.142;2022-07-26T03:58:40;2.30;;;2.20;;
2544;SDS011;36212;48.838;9.142;2022-07-26T04:01:12;2.67;;;2.47;;
2544;SDS011;36212;48.838;9.142;2022-07-26T04:03:44;2.40;;;2.20;;
2544;SDS011;36212;48.838;9.142;2022-07-26T04:06:18;3.03;;;2.43;;
2544;SDS011;36212;48.838;9.142;2022-07-26T04:08:53;2.50;;;2.13;;
2544;SDS011;36212;48.838;9.142;2022-07-26T04:11:25;3.10;;;2.30;;
2544;SDS011;36212;48.838;9.142;2022-07-26T04:13:59;2.27;;;2.07;;
2544;SDS011;36212;48.838;9.142;2022-07-26T04:16:32;2.20;;;2.10;;
2544;SDS011;36212;48.838;9.142;2022-07-26T04:19:04;2.70;;;2.50;;
2544;SDS011;36212;48.838;9.142;2022-07-26T04:21:37;2.50;;;2.30;;
2544;SDS011;36212;48.838;9.142;2022-07-26T04:24:09;2.50;;;2.30;;
2544;SDS011;36212;48.838;9.142;2022-07-26T04:26:41;2.30;;;2.20;;
2544;SDS011;36212;48.838;9.142;2022-07-26T04:29:13;3.17;;;2.87;;
2544;SDS011;36212;48.838;9.142;2022-07-26T04:31:46;2.70;;;2.50;;
2544;SDS011;36212;48.838;9.142;2022-07-26T04:34:18;2.53;;;2.33;;
2544;SDS011;36212;48.838;9.142;2022-07-26T04:36:50;2.67;;;2.50;;
2544;SDS011;36212;48.838;9.142;2022-07-26T04:39:22;2.77;;;2.57;;
2544;SDS011;36212;48.838;9.142;2022-07-26T04:41:55;3.60;;;2.83;;
2544;SDS011;36212;48.838;9.142;2022-07-26T04:44:27;2.40;;;2.30;;
2544;SDS011;36212;48.838;9.142;2022-07-26T04:46:59;2.80;;;2.60;;
2544;SDS011;36212;48.838;9.142;2022-07-26T04:49:31;2.50;;;2.40;;
2544;SDS011;36212;48.838;9.142;2022-07-26T04:52:04;4.90;;;2.47;;
2544;SDS011;36212;48.838;9.142;2022-07-26T04:54:36;2.93;;;2.43;;
2544;SDS011;36212;48.838;9.142;2022-07-26T04:57:08;2.80;;;2.70;;
2544;SDS011;36212;48.838;9.142;2022-07-26T04:59:40;2.77;;;2.57;;
2544;SDS011;36212;48.838;9.142;2022-07-26T05:02:13;2.73;;;2.63;;
2544;SDS011;36212;48.838;9.142;2022-07-26T05:04:47;4.73;;;2.83;;
2544;SDS011;36212;48.838;9.142;2022-07-26T05:07:19;2.63;;;2.43;;
2544;SDS011;36212;48.838;9.142;2022-07-26T05:09:51;2.80;;;2.70;;
2544;SDS011;36212;48.838;9.142;2022-07-26T05:12:23;3.57;;;3.10;;
2544;SDS011;36212;48.838;9.142;2022-07-26T05:14:55;2.97;;;2.80;;
2544;SDS011;36212;48.838;9.142;2022-07-26T05:17:27;4.27;;;2.67;;
2544;SDS011;36212;48.838;9.142;2022-07-26T05:20:00;7.23;;;2.60;;
2544;SDS011;36212;48.838;9.142;2022-07-26T05:22:37;2.60;;;2.40;;
2544;SDS011;36212;48.838;9.142;2022-07-26T05:25:09;4.00;;;2.70;;
2544;SDS011;36212;48.838;9.142;2022-07-26T05:27:41;2.73;;;2.63;;
2544;SDS011;36212;48.838;9.142;2022-07-26T05:30:14;3.20;;;3.00;;
2544;SDS011;36212;48.838;9.142;2022-07-26T05:32:46;3.30;;;3.00;;
2544;SDS011;36212;48.838;9.142;2022-07-26T05:35:18;4.17;;;3.50;;
2544;SDS011;36212;48.838;9.142;2022-07-26T05:37:50;3.90;;;3.60;;
2544;SDS011;36212;48.838;9.142;2022-07-26T05:40:22;3.23;;;3.03;;
2544;SDS011;36212;48.838;9.142;2022-07-26T05:42:54;3.60;;;3.40;;
2544;SDS011;36212;48.838;9.142;2022-07-26T05:45:26;3.70;;;3.40;;
2544;SDS011;36212;48.838;9.142;2022-07-26T05:47:59;3.40;;;3.10;;
2544;SDS011;36212;48.838;9.142;2022-07-26T05:50:31;3.70;;;3.20;;
2544;SDS011;36212;48.838;9.142;2022-07-26T05:53:03;3.20;;;3.00;;
2544;SDS011;36212;48.838;9.142;2022-07-26T05:55:37;3.53;;;3.13;;
2544;SDS011;36212;48.838;9.142;2022-07-26T05:58:09;3.73;;;3.13;;
2544;SDS011;36212;48.838;9.142;2022-07-26T06:00:42;3.53;;;3.23;;
2544;SDS011;36212;48.838;9.142;2022-07-26T06:03:19;3.10;;;2.90;;
2544;SDS011;36212;48.838;9.142;2022-07-26T06:05:56;3.07;;;2.87;;
2544;SDS011;36212;48.838;9.142;2022-07-26T06:08:29;3.13;;;2.83;;
2544;SDS011;36212;48.838;9.142;2022-07-26T06:11:02;3.17;;;2.87;;
2544;SDS011;36212;48.838;9.142;2022-07-26T06:13:35;4.53;;;2.47;;
2544;SDS011;36212;48.838;9.142;2022-07-26T06:16:07;3.40;;;2.50;;
2544;SDS011;36212;48.838;9.142;2022-07-26T06:18:39;3.83;;;2.37;;
2544;SDS011;36212;48.838;9.142;2022-07-26T06:21:11;2.43;;;2.33;;
2544;SDS011;36212;48.838;9.142;2022-07-26T06:23:43;2.60;;;2.40;;
2544;SDS011;36212;48.838;9.142;2022-07-26T06:26:15;2.70;;;2.20;;
2544;SDS011;36212;48.838;9.142;2022-07-26T06:28:48;7.80;;;2.23;;
2544;SDS011;36212;48.838;9.142;2022-07-26T06:31:24;2.70;;;2.20;;
2544;SDS011;36212;48.838;9.142;2022-07-26T06:33:56;3.77;;;2.20;;
2544;SDS011;36212;48.838;9.142;2022-07-26T06:36:28;2.73;;;2.17;;
2544;SDS011;36212;48.838;9.142;2022-07-26T06:39:01;1.80;;;1.70;;
2544;SDS011;36212;48.838;9.142;2022-07-26T06:41:34;2.10;;;2.00;;
2544;SDS011;36212;48.838;9.142;2022-07-26T06:44:06;2.33;;;1.70;;
2544;SDS011;36212;48.838;9.142;2022-07-26T06:46:39;1.60;;;1.50;;
2544;SDS011;36212;48.838;9.142;2022-07-26T06:49:11;2.77;;;1.80;;
2544;SDS011;36212;48.838;9.142;2022-07-26T06:51:43;1.87;;;1.77;;
2544;SDS011;36212;48.838;9.142;2022-07-26T06:54:15;1.70;;;1.60;;
2544;SDS011;36212;48.838;9.142;2022-07-26T06:56:47;2.00;;;1.77;;
2544;SDS011;36212;48.838;9.142;2022-07-26T06:59:19;4.33;;;1.50;;
2544;SDS011;36212;48.838;9.142;2022-07-26T07:01:54;2.87;;;1.50;;
2544;SDS011;36212;48.838;9.142;2022-07-26T07:04:31;1.90;;;1.43;;
2544;SDS011;36212;48.838;9.142;2022-07-26T07:07:04;2.20;;;1.30;;
2544;SDS011;36212;48.838;9.142;2022-07-26T07:09:37;2.50;;;1.57;;
2544;SDS011;36212;48.838;9.142;2022-07-26T07:12:09;3.50;;;1.40;;
2544;SDS011;36212;48.838;9.142;2022-07-26T07:14:42;6.33;;;1.80;;
2544;SDS011;36212;48.838;9.142;2022-07-26T07:17:17;1.67;;;1.57;;
2544;SDS011;36212;48.838;9.142;2022-07-26T07:19:51;1.20;;;1.10;;
2544;SDS011;36212;48.838;9.142;2022-07-26T07:22:23;2.80;;;1.30;;
2544;SDS011;36212;48.838;9.142;2022-07-26T07:24:55;1.77;;;1.50;;
2544;SDS011;36212;48.838;9.142;2022-07-26T07:27:27;2.70;;;1.60;;
2544;SDS011;36212;48.838;9.142;2022-07-26T07:29:59;1.23;;;1.13;;
2544;SDS011;36212;48.838;9.142;2022-07-26T07:32:33;3.07;;;1.53;;
2544;SDS011;36212;48.838;9.142;2022-07-26T07:35:06;1.50;;;1.40;;
2544;SDS011;36212;48.838;9.142;2022-07-26T07:37:43;1.63;;;1.40;;
2544;SDS011;36212;48.838;9.142;2022-07-26T07:40:23;1.80;;;1.70;;
2544;SDS011;36212;48.838;9.142;2022-07-26T07:42:56;4.17;;;1.53;;
2544;SDS011;36212;48.838;9.142;2022-07-26T07:45:28;2.53;;;1.17;;
2544;SDS011;36212;48.838;9.142;2022-07-26T07:48:01;2.07;;;1.60;;
2544;SDS011;36212;48.838;9.142;2022-07-26T07:50:33;1.83;;;1.70;;
2544;SDS011;36212;48.838;9.142;2022-07-26T07:53:05;1.50;;;1.40;;
2544;SDS011;36212;48.838;9.142;2022-07-26T07:55:37;1.90;;;1.33;;
2544;SDS011;36212;48.838;9.142;2022-07-26T07:58:14;2.30;;;1.30;;
2544;SDS011;36212;48.838;9.142;2022-07-26T08:00:49;2.17;;;1.10;;
2544;SDS011;36212;48.838;9.142;2022-07-26T08:03:21;2.27;;;1.20;;
2544;SDS011;36212;48.838;9.142;2022-07-26T08:06:09;1.40;;;1.30;;
2544;SDS011;36212;48.838;9.142;2022-07-26T08:08:42;1.30;;;1.20;;
2544;SDS011;36212;48.838;9.142;2022-07-26T08:11:14;1.47;;;1.27;;
2544;SDS011;36212;48.838;9.142;2022-07-26T08:13:46;2.13;;;1.67;;
2544;SDS011;36212;48.838;9.142;2022-07-26T08:16:18;7.30;;;1.30;;
2544;SDS011;36212;48.838;9.142;2022-07-26T08:18:51;2.10;;;1.30;;
2544;SDS011;36212;48.838;9.142;2022-07-26T08:21:28;1.87;;;1.33;;
2544;SDS011;36212;48.838;9.142;2022-07-26T08:24:01;2.13;;;1.10;;
2544;SDS011;36212;48.838;9.142;2022-07-26T08:26:34;2.70;;;1.40;;
2544;SDS011;36212;48.838;9.142;2022-07-26T08:29:06;2.60;;;1.07;;
2544;SDS011;36212;48.838;9.142;2022-07-26T08:31:38;1.50;;;1.20;;
2544;SDS011;36212;48.838;9.142;2022-07-26T08:34:10;2.00;;;1.37;;
2544;SDS011;36212;48.838;9.142;2022-07-26T08:36:42;4.93;;;1.33;;
2544;SDS011;36212;48.838;9.142;2022-07-26T08:39:35;4.03;;;1.37;;
2544;SDS011;36212;48.838;9.142;2022-07-26T08:42:14;1.57;;;1.30;;
2544;SDS011;36212;48.838;9.142;2022-07-26T08:44:53;1.23;;;1.13;;
2544;SDS011;36212;48.838;9.142;2022-07-26T08:47:25;1.40;;;1.30;;
2544;SDS011;36212;48.838;9.142;2022-07-26T08:50:10;1.60;;;1.50;;
2544;SDS011;36212;48.838;9.142;2022-07-26T08:52:42;3.43;;;1.40;;
2544;SDS011;36212;48.838;9.142;2022-07-26T08:55:16;2.90;;;1.40;;
2544;SDS011;36212;48.838;9.142;2022-07-26T08:57:49;1.93;;;1.30;;
2544;SDS011;36212;48.838;9.142;2022-07-26T09:00:23;1.50;;;1.40;;
2544;SDS011;36212;48.838;9.142;2022-07-26T09:03:01;1.47;;;1.37;;
2544;SDS011;36212;48.838;9.142;2022-07-26T09:05:34;3.00;;;1.40;;
2544;SDS011;36212;48.838;9.142;2022-07-26T09:08:26;1.67;;;1.33;;
2544;SDS011;36212;48.838;9.142;2022-07-26T09:10:59;2.63;;;1.33;;
2544;SDS011;36212;48.838;9.142;2022-07-26T09:13:59;1.20;;;1.10;;
2544;SDS011;36212;48.838;9.142;2022-07-26T09:16:34;1.50;;;1.40;;
2544;SDS011;36212;48.838;9.142;2022-07-26T09:19:14;1.73;;;1.23;;
2544;SDS011;36212;48.838;9.142;2022-07-26T09:21:51;1.80;;;1.57;;
2544;SDS011;36212;48.838;9.142;2022-07-26T09:24:40;3.00;;;1.50;;
2544;SDS011;36212;48.838;9.142;2022-07-26T09:27:16;1.33;;;1.20;;
2544;SDS011;36212;48.838;9.142;2022-07-26T09:29:52;8.10;;;1.87;;
2544;SDS011;36212;48.838;9.142;2022-07-26T09:32:34;1.47;;;1.13;;
2544;SDS011;36212;48.838;9.142;2022-07-26T09:35:13;2.50;;;1.23;;
2544;SDS011;36212;48.838;9.142;2022-07-26T09:38:12;4.20;;;1.40;;
2544;SDS011;36212;48.838;9.142;2022-07-26T09:40:45;1.13;;;1.03;;
2544;SDS011;36212;48.838;9.142;2022-07-26T09:43:24;2.00;;;1.20;;
2544;SDS011;36212;48.838;9.142;2022-07-26T09:46:07;2.27;;;1.33;;
2544;SDS011;36212;48.838;9.142;2022-07-26T09:48:41;1.50;;;1.30;;
2544;SDS011;36212;48.838;9.142;2022-07-26T09:51:51;1.43;;;1.30;;
2544;SDS011;36212;48.838;9.142;2022-07-26T09:57:02;2.73;;;1.67;;
2544;SDS011;36212;48.838;9.142;2022-07-26T09:59:34;1.73;;;1.30;;
2544;SDS011;36212;48.838;9.142;2022-07-26T10:02:06;1.83;;;1.27;;
2544;SDS011;36212;48.838;9.142;2022-07-26T10:04:40;1.50;;;1.40;;
2544;SDS011;36212;48.838;9.142;2022-07-26T10:07:13;2.33;;;1.60;;
2544;SDS011;36212;48.838;9.142;2022-07-26T10:09:47;3.97;;;1.30;;
2544;SDS011;36212;48.838;9.142;2022-07-26T10:12:44;1.87;;;1.50;;
2544;SDS011;36212;48.838;9.142;2022-07-26T10:23:59;3.67;;;1.67;;
2544;SDS011;36212;48.838;9.142;2022-07-26T10:34:48;2.17;;;1.30;;
2544;SDS011;36212;48.838;9.142;2022-07-26T10:37:22;1.57;;;1.47;;
2544;SDS011;36212;48.838;9.142;2022-07-26T10:40:14;4.50;;;1.37;;
2544;SDS011;36212;48.838;9.142;2022-07-26T10:42:50;2.20;;;1.30;;
2544;SDS011;36212;48.838;9.142;2022-07-26T10:45:42;1.33;;;1.23;;
2544;SDS011;36212;48.838;9.142;2022-07-26T10:48:58;2.07;;;1.30;;
2544;SDS011;36212;48.838;9.142;2022-07-26T10:51:37;1.60;;;1.40;;
2544;SDS011;36212;48.838;9.142;2022-07-26T10:54:11;1.30;;;1.20;;
2544;SDS011;36212;48.838;9.142;2022-07-26T10:56:46;1.53;;;1.43;;
2544;SDS011;36212;48.838;9.142;2022-07-26T10:59:29;3.37;;;1.10;;
2544;SDS011;36212;48.838;9.142;2022-07-26T11:02:27;3.33;;;1.40;;
2544;SDS011;36212;48.838;9.142;2022-07-26T11:05:12;1.50;;;1.40;;
2544;SDS011;36212;48.838;9.142;2022-07-26T11:07:52;2.30;;;1.20;;
2544;SDS011;36212;48.838;9.142;2022-07-26T11:13:16;2.13;;;1.30;;
2544;SDS011;36212;48.838;9.142;2022-07-26T11:15:57;1.50;;;1.20;;
2544;SDS011;36212;48.838;9.142;2022-07-26T11:18:34;2.50;;;1.50;;
2544;SDS011;36212;48.838;9.142;2022-07-26T11:21:14;1.57;;;1.47;;
2544;SDS011;36212;48.838;9.142;2022-07-26T11:23:47;1.50;;;1.40;;
2544;SDS011;36212;48.838;9.142;2022-07-26T11:26:30;1.47;;;1.30;;
2544;SDS011;36212;48.838;9.142;2022-07-26T11:29:13;1.40;;;1.30;;
2544;SDS011;36212;48.838;9.142;2022-07-26T11:31:57;3.40;;;1.20;;
2544;SDS011;36212;48.838;9.142;2022-07-26T11:35:03;1.30;;;1.20;;
2544;SDS011;36212;48.838;9.142;2022-07-26T11:37:36;1.10;;;1.00;;
2544;SDS011;36212;48.838;9.142;2022-07-26T11:40:08;2.50;;;1.20;;
2544;SDS011;36212;48.838;9.142;2022-07-26T11:42:42;1.27;;;1.17;;
2544;SDS011;36212;48.838;9.142;2022-07-26T11:45:14;2.10;;;1.10;;
2544;SDS011;36212;48.838;9.142;2022-07-26T11:47:48;1.40;;;1.30;;
2544;SDS011;36212;48.838;9.142;2022-07-26T11:50:26;1.50;;;1.33;;
2544;SDS011;36212;48.838;9.142;2022-07-26T11:52:58;2.37;;;1.50;;
2544;SDS011;36212;48.838;9.142;2022-07-26T11:55:30;1.40;;;1.03;;
2544;SDS011;36212;48.838;9.142;2022-07-26T11:58:03;1.50;;;1.40;;
2544;SDS011;36212;48.838;9.142;2022-07-26T12:00:37;1.33;;;1.23;;
2544;SDS011;36212;48.838;9.142;2022-07-26T12:03:09;3.40;;;1.20;;
2544;SDS011;36212;48.838;9.142;2022-07-26T12:05:41;2.27;;;1.10;;
2544;SDS011;36212;48.838;9.142;2022-07-26T12:08:37;1.90;;;1.10;;
2544;SDS011;36212;48.838;9.142;2022-07-26T12:11:24;1.63;;;1.10;;
2544;SDS011;36212;48.838;9.142;2022-07-26T12:14:11;1.30;;;1.20;;
2544;SDS011;36212;48.838;9.142;2022-07-26T12:17:08;1.50;;;1.10;;
2544;SDS011;36212;48.838;9.142;2022-07-26T12:19:53;1.20;;;1.10;;
2544;SDS011;36212;48.838;9.142;2022-07-26T12:22:56;1.27;;;1.07;;
2544;SDS011;36212;48.838;9.142;2022-07-26T12:25:35;1.93;;;1.10;;
2544;SDS011;36212;48.838;9.142;2022-07-26T12:28:15;1.57;;;1.13;;
2544;SDS011;36212;48.838;9.142;2022-07-26T12:31:29;1.27;;;1.17;;
2544;SDS011;36212;48.838;9.142;2022-07-26T12:34:01;2.67;;;1.37;;
2544;SDS011;36212;48.838;9.142;2022-07-26T12:36:33;2.03;;;1.40;;
2544;SDS011;36212;48.838;9.142;2022-07-26T12:39:07;2.77;;;1.57;;
2544;SDS011;36212;48.838;9.142;2022-07-26T12:41:51;2.10;;;1.30;;
2544;SDS011;36212;48.838;9.142;2022-07-26T12:44:25;1.30;;;1.13;;
2544;SDS011;36212;48.838;9.142;2022-07-26T12:46:57;1.20;;;1.10;;
2544;SDS011;36212;48.838;9.142;2022-07-26T12:49:30;1.40;;;1.30;;
2544;SDS011;36212;48.838;9.142;2022-07-26T12:52:02;1.57;;;1.33;;
2544;SDS011;36212;48.838;9.142;2022-07-26T12:54:36;1.57;;;1.20;;
2544;SDS011;36212;48.838;9.142;2022-07-26T12:57:08;2.30;;;1.10;;
2544;SDS011;36212;48.838;9.142;2022-07-26T12:59:50;1.70;;;1.40;;
2544;SDS011;36212;48.838;9.142;2022-07-26T13:02:23;1.30;;;1.20;;
2544;SDS011;36212;48.838;9.142;2022-07-26T13:04:56;2.33;;;1.10;;
2544;SDS011;36212;48.838;9.142;2022-07-26T13:07:31;1.53;;;1.43;;
2544;SDS011;36212;48.838;9.142;2022-07-26T13:10:04;1.20;;;1.10;;
2544;SDS011;36212;48.838;9.142;2022-07-26T13:12:57;1.33;;;1.10;;
2544;SDS011;36212;48.838;9.142;2022-07-26T13:15:30;1.10;;;1.00;;
2544;SDS011;36212;48.838;9.142;2022-07-26T13:18:07;2.70;;;1.50;;
2544;SDS011;36212;48.838;9.142;2022-07-26T13:20:40;1.20;;;1.10;;
2544;SDS011;36212;48.838;9.142;2022-07-26T13:23:12;1.20;;;1.00;;
2544;SDS011;36212;48.838;9.142;2022-07-26T13:25:52;1.73;;;1.33;;
2544;SDS011;36212;48.838;9.142;2022-07-26T13:28:44;1.30;;;1.20;;
2544;SDS011;36212;48.838;9.142;2022-07-26T13:31:20;1.20;;;1.07;;
2544;SDS011;36212;48.838;9.142;2022-07-26T13:33:52;2.50;;;1.10;;
2544;SDS011;36212;48.838;9.142;2022-07-26T13:36:24;1.33;;;1.20;;
2544;SDS011;36212;48.838;9.142;2022-07-26T13:38:57;1.43;;;1.33;;
2544;SDS011;36212;48.838;9.142;2022-07-26T13:41:29;1.20;;;1.10;;
2544;SDS011;36212;48.838;9.142;2022-07-26T13:44:06;2.27;;;1.30;;
2544;SDS011;36212;48.838;9.142;2022-07-26T13:46:38;2.00;;;1.23;;
2544;SDS011;36212;48.838;9.142;2022-07-26T13:49:11;1.93;;;1.83;;
2544;SDS011;36212;48.838;9.142;2022-07-26T13:51:44;2.03;;;1.67;;
2544;SDS011;36212;48.838;9.142;2022-07-26T13:54:29;1.50;;;1.40;;
2544;SDS011;36212;48.838;9.142;2022-07-26T13:57:04;1.17;;;1.07;;
2544;SDS011;36212;48.838;9.142;2022-07-26T13:59:38;1.33;;;1.23;;
2544;SDS011;36212;48.838;9.142;2022-07-26T14:02:10;2.30;;;1.43;;
2544;SDS011;36212;48.838;9.142;2022-07-26T14:04:42;1.63;;;1.30;;
2544;SDS011;36212;48.838;9.142;2022-07-26T14:07:14;3.13;;;1.10;;
2544;SDS011;36212;48.838;9.142;2022-07-26T14:09:46;3.43;;;1.70;;
2544;SDS011;36212;48.838;9.142;2022-07-26T14:12:18;2.17;;;1.40;;
2544;SDS011;36212;48.838;9.142;2022-07-26T14:14:51;1.47;;;1.37;;
2544;SDS011;36212;48.838;9.142;2022-07-26T14:17:23;3.80;;;1.00;;
2544;SDS011;36212;48.838;9.142;2022-07-26T14:19:55;1.43;;;1.07;;
2544;SDS011;36212;48.838;9.142;2022-07-26T14:22:27;2.30;;;1.63;;
2544;SDS011;36212;48.838;9.142;2022-07-26T14:25:00;2.37;;;1.43;;
2544;SDS011;36212;48.838;9.142;2022-07-26T14:27:32;1.67;;;1.20;;
2544;SDS011;36212;48.838;9.142;2022-07-26T14:30:05;1.17;;;1.00;;
2544;SDS011;36212;48.838;9.142;2022-07-26T14:32:38;1.10;;;1.00;;
2544;SDS011;36212;48.838;9.142;2022-07-26T14:35:11;2.40;;;1.10;;
2544;SDS011;36212;48.838;9.142;2022-07-26T14:37:46;1.10;;;1.00;;
2544;SDS011;36212;48.838;9.142;2022-07-26T14:40:18;1.43;;;1.27;;
2544;SDS011;36212;48.838;9.142;2022-07-26T14:42:51;1.20;;;1.10;;
2544;SDS011;36212;48.838;9.142;2022-07-26T14:45:23;1.67;;;1.00;;
2544;SDS011;36212;48.838;9.142;2022-07-26T14:47:55;1.40;;;1.20;;
2544;SDS011;36212;48.838;9.142;2022-07-26T14:50:28;2.57;;;1.40;;
2544;SDS011;36212;48.838;9.142;2022-07-26T14:53:20;1.30;;;1.20;;
2544;SDS011;36212;48.838;9.142;2022-07-26T14:55:54;1.53;;;1.43;;
2544;SDS011;36212;48.838;9.142;2022-07-26T14:58:26;1.23;;;1.13;;
2544;SDS011;36212;48.838;9.142;2022-07-26T15:01:00;2.13;;;1.30;;
2544;SDS011;36212;48.838;9.142;2022-07-26T15:03:32;3.20;;;1.10;;
2544;SDS011;36212;48.838;9.142;2022-07-26T15:06:04;1.83;;;1.20;;
2544;SDS011;36212;48.838;9.142;2022-07-26T15:08:36;1.37;;;1.10;;
2544;SDS011;36212;48.838;9.142;2022-07-26T15:11:09;1.80;;;1.20;;
2544;SDS011;36212;48.838;9.142;2022-07-26T15:13:41;1.20;;;1.10;;
2544;SDS011;36212;48.838;9.142;2022-07-26T15:16:13;1.57;;;1.30;;
2544;SDS011;36212;48.838;9.142;2022-07-26T15:18:46;2.53;;;1.13;;
2544;SDS011;36212;48.838;9.142;2022-07-26T15:21:18;1.63;;;1.10;;
2544;SDS011;36212;48.838;9.142;2022-07-26T15:23:50;1.20;;;1.00;;
2544;SDS011;36212;48.838;9.142;2022-07-26T15:26:22;1.73;;;1.30;;
2544;SDS011;36212;48.838;9.142;2022-07-26T15:28:54;2.37;;;1.53;;
2544;SDS011;36212;48.838;9.142;2022-07-26T15:31:26;1.93;;;1.30;;
2544;SDS011;36212;48.838;9.142;2022-07-26T15:34:07;1.97;;;1.00;;
2544;SDS011;36212;48.838;9.142;2022-07-26T15:36:40;1.20;;;1.10;;
2544;SDS011;36212;48.838;9.142;2022-07-26T15:39:12;1.60;;;1.23;;
2544;SDS011;36212;48.838;9.142;2022-07-26T15:41:47;3.57;;;1.20;;
2544;SDS011;36212;48.838;9.142;2022-07-26T15:44:20;1.23;;;1.03;;
2544;SDS011;36212;48.838;9.142;2022-07-26T15:46:56;1.60;;;1.20;;
2544;SDS011;36212;48.838;9.142;2022-07-26T15:49:28;1.50;;;1.40;;
2544;SDS011;36212;48.838;9.142;2022-07-26T15:52:02;3.50;;;1.50;;
2544;SDS011;36212;48.838;9.142;2022-07-26T15:54:35;1.67;;;1.33;;
2544;SDS011;36212;48.838;9.142;2022-07-26T15:57:09;1.30;;;1.20;;
2544;SDS011;36212;48.838;9.142;2022-07-26T15:59:41;2.53;;;1.60;;
2544;SDS011;36212;48.838;9.142;2022-07-26T16:02:14;3.17;;;1.30;;
2544;SDS011;36212;48.838;9.142;2022-07-26T16:04:46;1.40;;;1.10;;
2544;SDS011;36212;48.838;9.142;2022-07-26T16:07:19;1.37;;;1.27;;
2544;SDS011;36212;48.838;9.142;2022-07-26T16:09:51;1.43;;;1.20;;